Time;durP1;ratioP1;P1;durP2;ratioP2;P2;SDS_P1;SDS_P2;PMS_P1;PMS_P2;Temp;Humidity;BMP_temperature;BMP_pressure;BME280_temperature;BME280_humidity;BME280_pressure;Samples;Min_cycle;Max_cycle;Signal;HPM_P1;HPM_P2
2023/05/01 00:00:53;;;;;;;2.30;1.53;;;16.40;74.40;;;;;;6030709;23;20393;-66
2023/05/01 00:03:22;;;;;;;2.10;1.70;;;16.40;74.60;;;;;;6056054;23;20428;-66
2023/05/01 00:05:51;;;;;;;2.33;1.60;;;16.40;74.40;;;;;;6030348;23;20416;-65
2023/05/01 00:08:19;;;;;;;3.17;2.10;;;16.40;74.30;;;;;;6030907;23;20766;-65
2023/05/01 00:10:47;;;;;;;2.73;1.77;;;16.40;74.30;;;;;;6029614;23;20396;-65
2023/05/01 00:13:20;;;;;;;3.00;2.00;;;16.40;74.30;;;;;;6030497;23;20444;-66
2023/05/01 00:15:49;;;;;;;2.53;1.70;;;16.40;74.40;;;;;;6029286;23;20752;-66
2023/05/01 00:18:17;;;;;;;2.40;1.70;;;16.40;74.40;;;;;;6029202;23;20444;-67
2023/05/01 00:20:47;;;;;;;2.70;2.00;;;16.40;74.50;;;;;;6029838;23;20404;-66
2023/05/01 00:23:15;;;;;;;3.90;1.83;;;16.40;74.60;;;;;;6030738;23;20423;-66
2023/05/01 00:25:43;;;;;;;3.03;1.77;;;16.40;74.60;;;;;;6029199;23;20388;-66
2023/05/01 00:28:12;;;;;;;4.33;1.73;;;16.40;74.50;;;;;;6029899;23;20440;-66
2023/05/01 00:30:40;;;;;;;2.00;1.67;;;16.40;74.60;;;;;;6029580;23;20392;-66
2023/05/01 00:33:08;;;;;;;3.20;2.13;;;16.40;76.00;;;;;;6054640;23;20409;-65
2023/05/01 00:35:37;;;;;;;2.63;1.83;;;16.40;74.90;;;;;;6029050;23;20407;-65
2023/05/01 00:38:07;;;;;;;3.47;1.70;;;16.40;74.80;;;;;;6028504;23;20944;-65
2023/05/01 00:40:42;;;;;;;2.60;1.70;;;16.40;74.90;;;;;;6029695;23;20487;-66
2023/05/01 00:43:11;;;;;;;2.30;1.70;;;16.40;74.70;;;;;;6028406;23;20933;-66
2023/05/01 00:45:44;;;;;;;2.97;1.70;;;16.40;74.90;;;;;;6030010;23;20389;-66
2023/05/01 00:48:14;;;;;;;3.03;1.70;;;16.40;75.10;;;;;;6030371;23;20456;-65
2023/05/01 00:50:44;;;;;;;2.97;1.80;;;16.40;74.90;;;;;;6056867;23;20389;-65
2023/05/01 00:53:14;;;;;;;2.07;1.43;;;16.40;75.00;;;;;;6030374;23;20735;-66
2023/05/01 00:55:42;;;;;;;2.27;1.60;;;16.40;75.00;;;;;;6030236;23;20393;-65
2023/05/01 00:58:12;;;;;;;2.00;1.50;;;16.40;75.30;;;;;;6029935;23;20493;-66
2023/05/01 01:00:40;;;;;;;2.70;1.90;;;16.40;75.20;;;;;;6030458;23;20437;-64
2023/05/01 01:03:08;;;;;;;2.80;1.87;;;16.40;75.20;;;;;;6026537;23;20435;-66
2023/05/01 01:05:43;;;;;;;2.00;1.50;;;16.40;75.20;;;;;;6030374;23;20392;-66
2023/05/01 01:08:20;;;;;;;3.03;2.07;;;16.40;75.30;;;;;;6029972;23;20439;-65
2023/05/01 01:10:55;;;;;;;2.93;1.70;;;16.40;75.20;;;;;;6029931;23;20393;-66
2023/05/01 01:13:31;;;;;;;2.67;1.90;;;16.30;75.10;;;;;;6030304;23;20439;-66
2023/05/01 01:16:09;;;;;;;2.17;1.30;;;16.40;75.40;;;;;;6028433;23;20416;-65
2023/05/01 01:18:43;;;;;;;2.70;1.37;;;16.40;75.50;;;;;;6054788;23;20508;-66
2023/05/01 01:21:21;;;;;;;2.80;1.53;;;16.40;75.40;;;;;;6049874;23;20377;-66
2023/05/01 01:24:35;;;;;;;2.20;1.70;;;16.40;75.50;;;;;;6061744;23;20819;-66
2023/05/01 01:27:39;;;;;;;2.63;2.20;;;16.40;75.30;;;;;;6030804;23;20456;-65
2023/05/01 01:30:29;;;;;;;2.33;1.80;;;16.40;75.40;;;;;;6029475;23;20940;-64
2023/05/01 01:33:25;;;;;;;2.60;2.20;;;16.40;75.40;;;;;;6030848;23;20413;-65
2023/05/01 01:35:57;;;;;;;2.40;2.20;;;16.40;75.20;;;;;;6037101;23;20400;-65
2023/05/01 01:38:43;;;;;;;2.70;2.27;;;16.40;75.20;;;;;;6031726;23;20504;-66
2023/05/01 01:41:17;;;;;;;3.20;1.87;;;16.30;74.80;;;;;;6029727;23;20895;-66
2023/05/01 01:44:02;;;;;;;2.87;2.20;;;16.40;75.00;;;;;;6029734;23;20932;-67
2023/05/01 01:46:37;;;;;;;2.87;2.20;;;16.40;74.80;;;;;;6029384;23;20950;-65
2023/05/01 01:49:09;;;;;;;3.07;2.37;;;16.40;75.00;;;;;;6030619;23;20547;-66
2023/05/01 01:51:41;;;;;;;3.20;2.53;;;16.30;74.50;;;;;;6031705;23;20795;-66
2023/05/01 01:54:13;;;;;;;3.20;2.27;;;16.40;74.80;;;;;;6029800;23;20445;-66
2023/05/01 01:56:43;;;;;;;5.20;2.83;;;16.40;75.00;;;;;;6031010;23;20435;-66
2023/05/01 01:59:13;;;;;;;3.53;1.80;;;16.40;74.70;;;;;;6029624;23;20535;-65
2023/05/01 02:01:43;;;;;;;3.83;2.57;;;16.30;74.60;;;;;;6031550;23;20903;-66
2023/05/01 02:04:14;;;;;;;3.73;2.37;;;16.40;74.70;;;;;;6032506;23;20436;-66
2023/05/01 02:06:45;;;;;;;4.30;2.20;;;16.40;75.10;;;;;;6033141;23;20863;-66
2023/05/01 02:09:19;;;;;;;3.60;2.63;;;16.40;75.20;;;;;;6032897;23;20443;-66
2023/05/01 02:11:49;;;;;;;3.27;2.80;;;16.40;75.20;;;;;;6059475;23;20741;-64
2023/05/01 02:14:19;;;;;;;3.20;2.90;;;16.40;75.20;;;;;;6031820;23;20522;-67
2023/05/01 02:16:48;;;;;;;2.93;2.13;;;16.30;75.20;;;;;;6033440;23;20720;-65
2023/05/01 02:19:17;;;;;;;3.03;2.27;;;16.40;75.30;;;;;;6033328;23;20452;-66
2023/05/01 02:21:49;;;;;;;2.67;2.47;;;16.40;75.40;;;;;;6034330;23;20445;-67
2023/05/01 02:24:21;;;;;;;2.97;2.50;;;16.40;75.60;;;;;;6033229;23;20440;-67
2023/05/01 02:26:54;;;;;;;3.37;2.07;;;16.30;75.50;;;;;;6033539;23;20890;-66
2023/05/01 02:29:22;;;;;;;2.43;2.07;;;16.30;75.70;;;;;;6033495;23;20433;-66
2023/05/01 02:31:50;;;;;;;2.90;2.00;;;16.30;75.60;;;;;;6033431;23;20471;-66
2023/05/01 02:34:19;;;;;;;2.67;2.10;;;16.30;75.30;;;;;;6032473;23;20441;-66
2023/05/01 02:36:49;;;;;;;2.40;2.10;;;16.30;75.50;;;;;;6058501;23;20407;-65
2023/05/01 02:39:18;;;;;;;3.60;2.87;;;16.40;75.50;;;;;;6032797;23;20789;-66
2023/05/01 02:41:48;;;;;;;3.63;2.60;;;16.30;75.20;;;;;;6033351;23;20508;-66
2023/05/01 02:44:21;;;;;;;2.97;2.20;;;16.30;75.20;;;;;;6031569;23;20484;-67
2023/05/01 02:46:52;;;;;;;2.83;2.60;;;16.30;75.30;;;;;;6033078;23;21033;-66
2023/05/01 02:49:21;;;;;;;3.27;2.40;;;16.30;75.40;;;;;;6032299;23;20437;-66
2023/05/01 02:51:51;;;;;;;2.70;2.30;;;16.30;75.40;;;;;;6033538;23;20973;-66
2023/05/01 02:54:21;;;;;;;2.70;2.03;;;16.30;75.50;;;;;;6031782;23;20445;-65
2023/05/01 02:56:49;;;;;;;2.90;2.60;;;16.30;76.90;;;;;;6033293;23;20392;-67
2023/05/01 02:59:18;;;;;;;3.23;2.60;;;16.30;75.50;;;;;;6031598;23;20447;-66
2023/05/01 03:01:46;;;;;;;3.40;3.10;;;16.30;75.50;;;;;;6056353;23;20416;-66
2023/05/01 03:04:15;;;;;;;2.90;2.43;;;16.30;75.50;;;;;;6029301;23;21009;-66
2023/05/01 03:06:43;;;;;;;3.53;3.00;;;16.30;75.50;;;;;;6031571;23;20389;-66
2023/05/01 03:09:13;;;;;;;3.00;2.70;;;16.30;75.40;;;;;;6029295;23;20433;-66
2023/05/01 03:11:42;;;;;;;3.00;2.53;;;16.30;75.70;;;;;;6029945;23;20797;-65
2023/05/01 03:14:11;;;;;;;3.40;2.70;;;16.30;75.60;;;;;;6029411;23;20846;-66
2023/05/01 03:16:39;;;;;;;3.20;2.37;;;16.30;75.80;;;;;;6030137;23;20415;-66
2023/05/01 03:19:07;;;;;;;4.30;2.80;;;16.30;75.90;;;;;;6031365;23;20515;-66
2023/05/01 03:21:36;;;;;;;2.83;2.53;;;16.30;75.70;;;;;;6031190;23;22844;-66
2023/05/01 03:24:05;;;;;;;2.77;2.43;;;16.30;75.80;;;;;;6030326;23;20444;-66
2023/05/01 03:26:34;;;;;;;2.80;2.37;;;16.20;75.70;;;;;;6030800;23;20704;-66
2023/05/01 03:29:03;;;;;;;3.00;2.73;;;16.30;75.90;;;;;;6031382;23;20439;-66
2023/05/01 03:31:31;;;;;;;3.13;2.83;;;16.30;75.90;;;;;;6030212;23;20393;-65
2023/05/01 03:34:00;;;;;;;2.77;2.03;;;16.30;76.00;;;;;;6030173;23;20445;-66
2023/05/01 03:36:28;;;;;;;2.97;2.40;;;16.30;76.00;;;;;;6054691;23;20465;-66
2023/05/01 03:38:56;;;;;;;4.30;2.67;;;16.20;75.90;;;;;;6031532;23;20768;-66
2023/05/01 03:41:44;;;;;;;3.53;2.83;;;16.30;76.10;;;;;;6055474;23;20405;-66
2023/05/01 03:44:21;;;;;;;2.57;2.17;;;16.30;76.00;;;;;;6029837;23;20698;-65
2023/05/01 03:46:50;;;;;;;3.40;2.47;;;16.30;76.10;;;;;;6030320;23;20487;-66
2023/05/01 03:49:24;;;;;;;2.97;2.20;;;16.30;76.10;;;;;;6029731;23;20443;-67
2023/05/01 03:51:52;;;;;;;3.90;2.57;;;16.30;76.10;;;;;;6030514;23;20448;-65
2023/05/01 03:54:20;;;;;;;2.83;1.97;;;16.30;75.90;;;;;;6029819;23;20443;-66
2023/05/01 03:57:01;;;;;;;2.67;2.20;;;16.30;76.00;;;;;;6029626;23;20878;-66
2023/05/01 03:59:30;;;;;;;2.40;2.10;;;16.20;76.00;;;;;;6028479;23;20449;-65
2023/05/01 04:01:59;;;;;;;3.83;2.47;;;16.20;76.00;;;;;;6029770;23;20405;-65
2023/05/01 04:04:30;;;;;;;3.10;2.17;;;16.20;76.00;;;;;;6029059;23;20445;-66
2023/05/01 04:06:59;;;;;;;2.40;2.13;;;16.20;76.00;;;;;;6053963;23;20607;-66
2023/05/01 04:09:28;;;;;;;2.37;2.17;;;16.20;76.20;;;;;;6028808;23;20810;-66
2023/05/01 04:11:57;;;;;;;3.70;2.70;;;16.20;76.10;;;;;;6029685;23;20417;-66
2023/05/01 04:14:28;;;;;;;3.77;2.47;;;16.20;76.10;;;;;;6029081;23;20444;-66
2023/05/01 04:16:58;;;;;;;3.40;2.90;;;16.20;76.00;;;;;;6030529;23;20381;-66
2023/05/01 04:19:28;;;;;;;3.40;2.40;;;16.20;76.10;;;;;;6031328;23;20449;-65
2023/05/01 04:21:58;;;;;;;3.43;2.53;;;16.20;76.20;;;;;;6032336;23;20428;-65
2023/05/01 04:24:27;;;;;;;2.50;2.10;;;16.20;76.30;;;;;;6030336;23;20874;-66
2023/05/01 04:26:55;;;;;;;2.33;1.80;;;16.20;76.30;;;;;;6031690;23;20495;-67
2023/05/01 04:29:24;;;;;;;2.83;2.37;;;16.20;76.30;;;;;;6031519;23;20447;-66
2023/05/01 04:31:54;;;;;;;2.70;2.10;;;16.20;76.20;;;;;;6031632;23;20512;-65
2023/05/01 04:34:22;;;;;;;2.67;2.30;;;16.20;76.20;;;;;;6031373;23;20705;-66
2023/05/01 04:36:52;;;;;;;2.40;2.20;;;16.20;76.30;;;;;;6032588;23;20444;-66
2023/05/01 04:39:20;;;;;;;2.33;2.10;;;16.20;76.40;;;;;;6032275;23;20497;-66
2023/05/01 04:41:49;;;;;;;3.37;2.50;;;16.20;76.40;;;;;;6032945;23;20417;-65
2023/05/01 04:44:17;;;;;;;2.67;2.47;;;16.20;77.70;;;;;;6132947;23;20620;-66
2023/05/01 04:46:45;;;;;;;2.97;2.20;;;16.20;76.40;;;;;;6031841;23;20491;-66
2023/05/01 04:49:15;;;;;;;2.77;2.20;;;16.20;76.40;;;;;;6031588;23;20769;-66
2023/05/01 04:51:44;;;;;;;2.67;2.47;;;16.20;76.30;;;;;;6031749;23;20416;-66
2023/05/01 04:54:15;;;;;;;2.50;2.30;;;16.20;76.50;;;;;;6030912;23;20440;-65
2023/05/01 04:56:43;;;;;;;2.50;2.20;;;16.10;76.30;;;;;;6056176;23;20389;-66
2023/05/01 04:59:12;;;;;;;3.10;2.73;;;16.20;76.50;;;;;;6030848;23;21175;-65
2023/05/01 05:01:40;;;;;;;2.97;2.57;;;16.20;76.30;;;;;;6031088;23;20436;-66
2023/05/01 05:04:09;;;;;;;2.93;2.50;;;16.10;76.60;;;;;;6031386;23;20444;-65
2023/05/01 05:06:39;;;;;;;3.00;2.33;;;16.20;76.30;;;;;;6031712;23;20731;-66
2023/05/01 05:09:13;;;;;;;2.50;2.13;;;16.20;76.30;;;;;;6031195;23;20446;-66
2023/05/01 05:11:41;;;;;;;2.50;1.97;;;16.10;76.30;;;;;;6031746;23;20460;-66
2023/05/01 05:14:14;;;;;;;4.20;2.50;;;16.20;76.50;;;;;;6030914;23;20511;-66
2023/05/01 05:16:42;;;;;;;2.87;2.47;;;16.10;76.40;;;;;;6030928;23;20401;-65
2023/05/01 05:19:11;;;;;;;4.30;2.40;;;16.20;76.30;;;;;;6031309;23;20531;-65
2023/05/01 05:21:43;;;;;;;2.57;2.33;;;16.10;76.20;;;;;;6031561;23;20530;-66
2023/05/01 05:24:12;;;;;;;3.20;2.47;;;16.10;76.40;;;;;;6029248;23;20439;-66
2023/05/01 05:26:40;;;;;;;3.00;2.30;;;16.10;76.40;;;;;;6031012;23;20413;-66
2023/05/01 05:29:08;;;;;;;2.53;2.13;;;16.10;76.30;;;;;;6030354;23;20433;-64
2023/05/01 05:31:37;;;;;;;2.83;1.90;;;16.10;76.30;;;;;;6056469;23;20950;-65
2023/05/01 05:34:05;;;;;;;2.57;2.37;;;16.10;76.40;;;;;;6030312;23;20437;-65
2023/05/01 05:36:34;;;;;;;2.90;1.97;;;16.10;76.10;;;;;;6031882;23;20868;-66
2023/05/01 05:39:04;;;;;;;3.43;2.53;;;16.10;76.30;;;;;;6030263;23;20389;-65
2023/05/01 05:41:33;;;;;;;3.73;2.90;;;16.10;76.20;;;;;;6030223;23;20620;-64
2023/05/01 05:44:03;;;;;;;2.97;2.67;;;16.10;75.80;;;;;;6054370;23;20467;-64
2023/05/01 05:46:31;;;;;;;2.73;2.30;;;16.10;76.00;;;;;;6030668;23;20405;-66
2023/05/01 05:49:01;;;;;;;2.80;2.60;;;16.10;76.60;;;;;;6031478;23;20850;-66
2023/05/01 05:51:31;;;;;;;2.50;2.30;;;16.10;76.40;;;;;;6031011;23;20717;-66
2023/05/01 05:54:00;;;;;;;2.23;1.80;;;16.10;76.30;;;;;;6029851;23;20471;-65
2023/05/01 05:56:35;;;;;;;2.73;2.00;;;16.10;76.70;;;;;;6030499;23;20968;-65
2023/05/01 05:59:05;;;;;;;2.33;2.10;;;16.10;76.50;;;;;;6031746;23;20396;-64
2023/05/01 06:01:33;;;;;;;2.20;2.00;;;16.10;76.60;;;;;;6029765;23;20482;-66
2023/05/01 06:04:02;;;;;;;2.23;1.93;;;16.10;76.60;;;;;;6053689;23;20783;-65
2023/05/01 06:06:33;;;;;;;3.57;2.50;;;16.10;76.50;;;;;;6031222;23;20424;-65
2023/05/01 06:09:03;;;;;;;3.40;2.20;;;16.10;77.60;;;;;;6030242;23;20475;-64
2023/05/01 06:11:32;;;;;;;2.77;2.37;;;16.10;76.30;;;;;;6028774;23;20431;-66
2023/05/01 06:14:02;;;;;;;2.27;2.03;;;16.10;76.20;;;;;;6029713;23;20473;-65
2023/05/01 06:16:31;;;;;;;2.80;2.60;;;16.10;76.50;;;;;;6028855;23;20949;-65
2023/05/01 06:19:00;;;;;;;3.20;2.53;;;16.10;75.90;;;;;;6030913;23;20492;-65
2023/05/01 06:21:30;;;;;;;2.73;2.10;;;16.10;76.30;;;;;;6031023;23;20829;-65
2023/05/01 06:24:00;;;;;;;2.70;2.13;;;16.10;76.50;;;;;;6030436;23;20788;-66
2023/05/01 06:26:40;;;;;;;3.40;2.40;;;16.10;76.60;;;;;;6031162;23;20719;-66
2023/05/01 06:29:09;;;;;;;2.57;2.23;;;16.10;76.40;;;;;;6031140;23;20412;-64
2023/05/01 06:31:38;;;;;;;3.70;2.60;;;16.10;77.00;;;;;;6030404;23;20730;-66
2023/05/01 06:34:07;;;;;;;2.77;2.13;;;16.10;76.40;;;;;;6027638;23;20442;-67
2023/05/01 06:36:47;;;;;;;2.77;2.20;;;16.10;76.10;;;;;;6030697;23;20926;-65
2023/05/01 06:39:15;;;;;;;3.67;2.93;;;16.10;76.50;;;;;;6006458;23;20962;-66
2023/05/01 06:41:46;;;;;;;3.10;2.50;;;16.10;75.60;;;;;;6030962;23;20494;-65
2023/05/01 06:44:16;;;;;;;2.80;2.50;;;16.10;76.30;;;;;;6030104;23;20497;-67
2023/05/01 06:46:45;;;;;;;3.00;2.60;;;16.10;76.00;;;;;;6030716;23;20482;-67
2023/05/01 06:49:13;;;;;;;2.50;2.30;;;16.10;76.40;;;;;;6054085;23;20961;-66
2023/05/01 06:51:41;;;;;;;5.97;3.40;;;16.10;76.50;;;;;;6054041;23;20409;-66
2023/05/01 06:54:12;;;;;;;3.50;2.30;;;16.10;76.70;;;;;;6030494;23;20394;-66
2023/05/01 06:56:41;;;;;;;2.40;2.20;;;16.10;76.60;;;;;;6031402;23;20398;-65
2023/05/01 06:59:10;;;;;;;3.23;2.73;;;16.10;76.60;;;;;;6030477;23;20411;-66
2023/05/01 07:01:40;;;;;;;3.63;2.47;;;16.10;76.40;;;;;;6030675;23;20570;-66
2023/05/01 07:04:08;;;;;;;3.37;2.70;;;16.10;76.70;;;;;;6030675;23;20376;-66
2023/05/01 07:06:37;;;;;;;4.67;3.10;;;16.10;76.70;;;;;;6030884;23;20923;-66
2023/05/01 07:09:05;;;;;;;3.10;2.43;;;16.10;76.70;;;;;;6030070;23;20460;-65
2023/05/01 07:11:33;;;;;;;2.70;1.87;;;16.10;76.80;;;;;;6030617;23;20396;-64
2023/05/01 07:14:02;;;;;;;3.33;3.03;;;16.10;76.90;;;;;;6030215;23;20532;-65
2023/05/01 07:16:31;;;;;;;4.10;2.80;;;16.10;76.20;;;;;;6028742;23;20775;-64
2023/05/01 07:19:00;;;;;;;2.17;1.90;;;16.00;76.20;;;;;;6030496;23;20389;-64
2023/05/01 07:21:30;;;;;;;3.27;2.97;;;16.10;76.60;;;;;;6029735;23;20445;-66
2023/05/01 07:23:58;;;;;;;3.27;2.97;;;16.10;76.50;;;;;;6029552;23;20771;-66
2023/05/01 07:26:27;;;;;;;6.63;3.53;;;16.10;76.50;;;;;;6029813;23;20377;-64
2023/05/01 07:28:55;;;;;;;3.23;2.93;;;16.10;76.50;;;;;;6051343;23;20949;-73
2023/05/01 07:31:24;;;;;;;3.30;2.63;;;16.10;76.50;;;;;;6029225;23;20401;-72
2023/05/01 07:33:52;;;;;;;3.80;2.90;;;16.10;76.60;;;;;;6030576;23;20839;-72
2023/05/01 07:36:23;;;;;;;3.40;2.40;;;16.10;76.40;;;;;;6030721;23;20500;-72
2023/05/01 07:38:51;;;;;;;4.17;3.00;;;16.10;76.60;;;;;;6029793;23;20385;-72
2023/05/01 07:41:21;;;;;;;7.17;2.93;;;16.10;76.60;;;;;;6056736;23;20923;-72
2023/05/01 07:43:49;;;;;;;2.53;2.17;;;16.20;76.60;;;;;;6030620;23;20811;-72
2023/05/01 07:46:18;;;;;;;2.43;2.10;;;16.20;76.50;;;;;;6028385;23;20397;-66
2023/05/01 07:48:47;;;;;;;2.70;2.47;;;16.20;76.30;;;;;;6024408;23;20881;-66
2023/05/01 07:51:16;;;;;;;2.90;2.60;;;16.20;76.50;;;;;;6055114;23;20415;-65
2023/05/01 07:53:46;;;;;;;4.10;1.93;;;16.20;76.30;;;;;;6055579;23;20913;-66
2023/05/01 07:56:15;;;;;;;3.40;2.60;;;16.20;76.30;;;;;;6030437;23;20447;-65
2023/05/01 07:58:44;;;;;;;2.20;2.00;;;16.20;76.40;;;;;;6029890;23;20479;-65
2023/05/01 08:01:12;;;;;;;2.70;2.13;;;16.20;76.70;;;;;;6029642;23;20381;-67
2023/05/01 08:03:40;;;;;;;2.37;2.17;;;16.20;76.70;;;;;;6030391;23;20492;-66
2023/05/01 08:06:09;;;;;;;2.53;2.33;;;16.20;76.60;;;;;;6029204;23;20385;-65
2023/05/01 08:08:37;;;;;;;2.90;2.23;;;16.20;76.80;;;;;;6023306;23;20435;-66
2023/05/01 08:11:09;;;;;;;3.33;2.30;;;16.30;76.80;;;;;;6027983;23;20401;-66
2023/05/01 08:13:38;;;;;;;2.23;2.03;;;16.30;76.60;;;;;;6022209;23;20450;-66
2023/05/01 08:16:06;;;;;;;3.00;2.60;;;16.20;76.40;;;;;;6027862;23;20393;-66
2023/05/01 08:18:35;;;;;;;2.73;2.30;;;16.20;76.60;;;;;;6055141;23;20481;-65
2023/05/01 08:21:03;;;;;;;2.60;2.13;;;16.20;76.50;;;;;;6029809;23;20953;-66
2023/05/01 08:23:32;;;;;;;2.83;2.50;;;16.30;76.30;;;;;;6030948;23;20440;-65
2023/05/01 08:26:00;;;;;;;3.57;2.40;;;16.30;75.90;;;;;;6005335;23;20953;-66
2023/05/01 08:28:30;;;;;;;2.43;1.80;;;16.20;76.20;;;;;;6030101;23;20396;-64
2023/05/01 08:30:59;;;;;;;2.37;2.00;;;16.30;76.10;;;;;;6029953;23;20420;-66
2023/05/01 08:33:27;;;;;;;2.83;1.97;;;16.30;76.30;;;;;;6029277;23;21007;-65
2023/05/01 08:35:55;;;;;;;2.50;2.30;;;16.30;76.40;;;;;;6030078;23;20416;-65
2023/05/01 08:38:24;;;;;;;2.73;2.07;;;16.30;76.60;;;;;;6028760;23;20441;-64
2023/05/01 08:40:55;;;;;;;2.53;1.83;;;16.20;76.40;;;;;;6029940;23;20436;-66
2023/05/01 08:43:24;;;;;;;2.60;1.80;;;16.30;76.90;;;;;;6055651;23;20428;-66
2023/05/01 08:45:56;;;;;;;2.00;1.73;;;16.30;76.90;;;;;;6029311;23;20476;-65
2023/05/01 08:48:26;;;;;;;2.10;1.90;;;16.30;77.10;;;;;;6028876;23;20446;-64
2023/05/01 08:50:57;;;;;;;3.20;2.30;;;16.30;76.60;;;;;;6030388;23;20873;-64
2023/05/01 08:53:26;;;;;;;2.50;1.80;;;16.30;76.50;;;;;;6029107;23;20910;-64
2023/05/01 08:55:56;;;;;;;2.50;1.60;;;16.30;76.30;;;;;;6029629;23;20432;-65
2023/05/01 08:58:28;;;;;;;2.20;1.70;;;16.30;76.80;;;;;;6029818;23;20401;-64
2023/05/01 09:01:00;;;;;;;2.07;1.73;;;16.30;76.90;;;;;;6028543;23;20431;-66
2023/05/01 09:03:31;;;;;;;2.70;1.90;;;16.30;76.60;;;;;;6031423;23;20429;-66
2023/05/01 09:06:02;;;;;;;2.70;2.10;;;16.30;77.00;;;;;;6029379;23;20377;-65
2023/05/01 09:08:31;;;;;;;2.80;2.10;;;16.30;76.90;;;;;;6030554;23;20443;-65
2023/05/01 09:11:01;;;;;;;2.50;2.10;;;16.30;76.80;;;;;;6030921;23;20681;-66
2023/05/01 09:13:30;;;;;;;1.97;1.47;;;16.30;76.90;;;;;;6030982;23;20524;-66
2023/05/01 09:16:00;;;;;;;2.53;2.07;;;16.30;77.00;;;;;;6030261;23;20397;-65
2023/05/01 09:18:30;;;;;;;2.80;1.93;;;16.30;76.70;;;;;;6031179;23;20437;-65
2023/05/01 09:20:58;;;;;;;2.17;1.90;;;16.30;76.40;;;;;;6031219;23;20385;-65
2023/05/01 09:23:27;;;;;;;2.80;2.30;;;16.30;76.40;;;;;;6055571;23;20811;-66
2023/05/01 09:25:56;;;;;;;3.10;2.23;;;16.30;76.20;;;;;;6029753;23;20435;-66
2023/05/01 09:28:40;;;;;;;2.20;1.80;;;16.30;76.30;;;;;;6031540;23;20432;-65
2023/05/01 09:31:27;;;;;;;2.07;1.63;;;16.30;76.80;;;;;;6030186;23;20432;-66
2023/05/01 09:33:58;;;;;;;1.97;1.73;;;16.30;76.70;;;;;;6031345;23;20804;-64
2023/05/01 09:36:29;;;;;;;2.57;2.20;;;16.30;76.80;;;;;;6030717;23;20413;-63
2023/05/01 09:38:59;;;;;;;1.77;1.60;;;16.30;76.80;;;;;;6030788;23;20921;-65
2023/05/01 09:41:28;;;;;;;3.20;2.37;;;16.30;76.90;;;;;;6030582;23;20401;-66
2023/05/01 09:43:57;;;;;;;2.00;1.80;;;16.30;76.80;;;;;;6030577;23;20528;-66
2023/05/01 09:46:27;;;;;;;5.03;2.20;;;16.30;76.90;;;;;;6028971;23;20397;-66
2023/05/01 09:48:57;;;;;;;2.47;1.90;;;16.30;76.90;;;;;;6056763;23;20772;-65
2023/05/01 09:51:27;;;;;;;2.63;1.67;;;16.40;77.00;;;;;;6031369;23;20373;-65
2023/05/01 09:53:57;;;;;;;1.90;1.50;;;16.30;76.90;;;;;;6056021;23;21012;-65
2023/05/01 09:56:26;;;;;;;2.40;1.70;;;16.30;77.00;;;;;;6030202;23;20451;-66
2023/05/01 09:58:56;;;;;;;3.03;1.90;;;16.30;77.10;;;;;;6055000;23;20511;-66
2023/05/01 10:01:39;;;;;;;4.57;2.03;;;16.30;76.70;;;;;;6029791;23;20881;-66
2023/05/01 10:04:09;;;;;;;2.50;2.17;;;16.30;76.50;;;;;;6030458;23;20523;-66
2023/05/01 10:06:38;;;;;;;2.30;1.50;;;16.40;76.00;;;;;;6031195;23;20451;-66
2023/05/01 10:09:15;;;;;;;2.50;2.20;;;16.30;76.20;;;;;;6029484;23;20440;-64
2023/05/01 10:11:52;;;;;;;2.33;1.63;;;16.30;76.40;;;;;;6030250;23;20413;-66
2023/05/01 10:14:22;;;;;;;2.17;1.90;;;16.30;77.80;;;;;;6054408;23;20444;-65
2023/05/01 10:16:52;;;;;;;2.90;2.17;;;16.30;76.60;;;;;;6051788;23;20377;-64
2023/05/01 10:19:21;;;;;;;2.83;2.00;;;16.30;76.10;;;;;;6029407;23;20448;-65
2023/05/01 10:21:49;;;;;;;2.53;1.90;;;16.30;76.00;;;;;;6029770;23;20424;-65
2023/05/01 10:24:18;;;;;;;2.73;1.90;;;16.30;76.30;;;;;;6054134;23;20421;-64
2023/05/01 10:26:49;;;;;;;2.53;2.33;;;16.30;76.60;;;;;;6031227;23;21134;-66
2023/05/01 10:29:22;;;;;;;2.70;1.87;;;16.30;76.50;;;;;;6055535;23;20772;-64
2023/05/01 10:31:51;;;;;;;2.57;1.80;;;16.30;76.60;;;;;;6029947;23;20452;-65
2023/05/01 10:34:23;;;;;;;3.13;2.07;;;16.30;76.40;;;;;;6030351;23;20388;-65
2023/05/01 10:37:00;;;;;;;4.60;1.73;;;16.30;76.70;;;;;;6029268;23;20435;-64
2023/05/01 10:39:32;;;;;;;4.37;2.80;;;16.30;76.80;;;;;;6029874;23;20440;-65
2023/05/01 10:42:05;;;;;;;3.67;2.70;;;16.30;75.70;;;;;;6055772;23;20421;-65
2023/05/01 10:44:34;;;;;;;3.75;3.05;;;16.30;74.70;;;;;;6029140;23;21033;-65
2023/05/01 10:47:41;;;;;;;4.33;3.27;;;16.30;74.40;;;;;;6030838;23;20260;-65
2023/05/01 10:50:14;;;;;;;4.40;3.03;;;16.20;74.50;;;;;;6066853;23;20475;-66
2023/05/01 10:53:19;;;;;;;3.90;2.97;;;16.30;74.90;;;;;;6031770;23;20404;-66
2023/05/01 10:55:49;;;;;;;4.13;2.67;;;16.30;75.10;;;;;;6030173;23;20393;-66
2023/05/01 10:59:04;;;;;;;4.20;3.03;;;16.30;76.60;;;;;;6056173;23;20484;-65
2023/05/01 11:01:35;;;;;;;3.00;2.40;;;16.30;75.30;;;;;;6029842;23;20405;-64
2023/05/01 11:04:07;;;;;;;3.50;2.80;;;16.30;75.70;;;;;;6055442;23;20429;-66
2023/05/01 11:06:37;;;;;;;2.83;2.53;;;16.30;75.90;;;;;;6031080;23;20472;-65
2023/05/01 11:09:40;;;;;;;3.87;2.53;;;16.30;76.00;;;;;;6031177;23;20493;-64
2023/05/01 11:12:11;;;;;;;4.57;3.00;;;16.30;75.90;;;;;;6033222;23;20926;-73
2023/05/01 11:15:02;;;;;;;3.50;2.13;;;16.30;77.30;;;;;;6029826;23;20464;-73
2023/05/01 11:17:48;;;;;;;2.33;1.87;;;16.30;76.20;;;;;;6031122;23;20385;-72
2023/05/01 11:20:49;;;;;;;3.57;2.80;;;16.30;77.50;;;;;;6029553;23;20445;-73
2023/05/01 11:23:20;;;;;;;4.47;2.47;;;16.30;76.40;;;;;;6030875;23;20447;-72
2023/05/01 11:25:52;;;;;;;3.80;3.23;;;16.30;76.40;;;;;;6029910;23;20381;-73
2023/05/01 11:28:22;;;;;;;3.90;3.00;;;16.30;76.30;;;;;;6054050;23;20377;-73
2023/05/01 11:30:50;;;;;;;3.27;2.60;;;16.40;75.50;;;;;;6030435;23;20932;-66
2023/05/01 11:33:24;;;;;;;3.50;2.63;;;16.40;75.70;;;;;;6053138;23;20988;-65
2023/05/01 11:36:03;;;;;;;3.40;3.10;;;16.40;76.10;;;;;;6030762;23;20369;-67
2023/05/01 11:38:33;;;;;;;3.57;2.60;;;16.30;76.20;;;;;;6054651;23;20781;-66
2023/05/01 11:41:04;;;;;;;2.40;1.97;;;16.40;76.50;;;;;;6031296;23;20958;-65
2023/05/01 11:43:33;;;;;;;4.97;2.40;;;16.40;76.50;;;;;;6030866;23;20433;-66
2023/05/01 11:46:04;;;;;;;2.57;2.23;;;16.30;76.50;;;;;;6028416;23;20373;-65
2023/05/01 11:48:32;;;;;;;3.63;3.07;;;16.40;76.70;;;;;;6054262;23;20414;-73
2023/05/01 11:51:01;;;;;;;4.97;2.70;;;16.40;76.30;;;;;;6029877;23;20524;-73
2023/05/01 11:53:30;;;;;;;4.10;3.10;;;16.50;75.70;;;;;;6030502;23;20432;-72
2023/05/01 11:56:00;;;;;;;6.97;2.97;;;16.50;75.50;;;;;;6028886;23;20396;-73
2023/05/01 11:58:33;;;;;;;2.87;2.17;;;16.50;75.60;;;;;;6027782;23;20754;-72
2023/05/01 12:01:02;;;;;;;5.23;3.40;;;16.50;75.80;;;;;;6030398;23;20732;-72
2023/05/01 12:03:41;;;;;;;5.03;2.40;;;16.50;75.60;;;;;;6030069;23;20456;-73
2023/05/01 12:06:11;;;;;;;3.40;2.87;;;16.50;75.60;;;;;;6030764;23;20397;-72
2023/05/01 12:08:49;;;;;;;4.10;2.63;;;16.40;75.80;;;;;;6030170;23;20523;-66
2023/05/01 12:11:20;;;;;;;2.90;2.57;;;16.40;75.60;;;;;;6030415;23;20376;-64
2023/05/01 12:13:49;;;;;;;2.93;2.37;;;16.40;75.60;;;;;;6029709;23;20392;-66
2023/05/01 12:16:18;;;;;;;3.90;1.80;;;16.40;75.70;;;;;;6055219;23;20401;-66
2023/05/01 12:18:47;;;;;;;4.33;2.50;;;16.40;75.80;;;;;;6053461;23;20745;-65
2023/05/01 12:21:17;;;;;;;2.67;2.43;;;16.40;75.60;;;;;;6055411;23;20712;-66
2023/05/01 12:23:45;;;;;;;3.73;2.30;;;16.40;75.70;;;;;;6030146;23;20479;-73
2023/05/01 12:26:20;;;;;;;3.87;2.50;;;16.40;75.60;;;;;;6030544;23;20385;-72
2023/05/01 12:28:56;;;;;;;3.77;2.20;;;16.40;74.60;;;;;;6055874;23;21015;-73
2023/05/01 12:31:25;;;;;;;2.90;2.20;;;16.40;74.20;;;;;;6006165;23;21104;-71
2023/05/01 12:33:55;;;;;;;2.57;2.10;;;16.40;73.20;;;;;;6030538;23;20425;-73
2023/05/01 12:36:26;;;;;;;3.80;2.70;;;16.40;73.70;;;;;;6031446;23;20377;-73
2023/05/01 12:39:03;;;;;;;2.60;2.10;;;16.40;74.00;;;;;;6031464;23;20397;-72
2023/05/01 12:41:41;;;;;;;2.77;1.90;;;16.40;73.60;;;;;;6053814;23;20389;-73
2023/05/01 12:44:21;;;;;;;2.77;2.20;;;16.40;74.00;;;;;;6028759;23;20785;-73
2023/05/01 12:46:59;;;;;;;2.80;2.30;;;16.40;74.20;;;;;;6029031;23;20400;-73
2023/05/01 12:49:30;;;;;;;3.63;2.27;;;16.40;74.80;;;;;;6030733;23;20448;-72
2023/05/01 12:52:01;;;;;;;2.73;2.40;;;16.40;74.80;;;;;;6030997;23;20478;-73
2023/05/01 12:54:31;;;;;;;2.77;2.30;;;16.40;74.40;;;;;;6030719;23;20471;-73
2023/05/01 12:57:08;;;;;;;2.90;2.60;;;16.40;74.40;;;;;;6031877;23;21519;-72
2023/05/01 12:59:38;;;;;;;1.90;1.57;;;16.40;74.40;;;;;;6031785;23;20437;-73
2023/05/01 13:02:09;;;;;;;2.17;1.97;;;16.40;74.60;;;;;;6007727;23;21121;-67
2023/05/01 13:04:38;;;;;;;5.27;3.37;;;16.40;74.70;;;;;;6030918;23;20456;-65
2023/05/01 13:07:12;;;;;;;2.37;2.10;;;16.40;74.10;;;;;;6031455;23;20480;-67
2023/05/01 13:09:50;;;;;;;3.63;2.23;;;16.40;74.60;;;;;;6030078;23;20468;-65